Time;durP1;ratioP1;P1;durP2;ratioP2;P2;SDS_P1;SDS_P2;PMS_P1;PMS_P2;Temp;Humidity;BMP_temperature;BMP_pressure;BME280_temperature;BME280_humidity;BME280_pressure;Samples;Min_cycle;Max_cycle;Signal;HPM_P1;HPM_P2
2024/01/10 00:00:12;;;;;;;35.43;22.10;;;;;;;-4.38;66.09;96914.63;5095098;28;20177;-66
2024/01/10 00:02:38;;;;;;;35.30;22.70;;;;;;;-4.50;66.48;96925.44;5091102;28;20183;-64
2024/01/10 00:05:03;;;;;;;36.00;23.90;;;;;;;-4.64;67.35;96919.13;5090865;28;20193;-65
2024/01/10 00:07:29;;;;;;;35.53;22.47;;;;;;;-4.54;67.26;96912.53;5090396;28;20194;-68
2024/01/10 00:09:54;;;;;;;36.70;22.50;;;;;;;-4.26;64.88;96909.75;5091033;28;20711;-68
2024/01/10 00:12:19;;;;;;;39.10;23.03;;;;;;;-4.34;65.89;96915.56;5090847;28;20755;-68
2024/01/10 00:14:45;;;;;;;35.30;24.03;;;;;;;-3.98;65.46;96915.47;5090610;28;20174;-67
2024/01/10 00:17:10;;;;;;;37.50;23.90;;;;;;;-3.77;63.77;96909.94;5090884;28;20284;-64
2024/01/10 00:19:35;;;;;;;47.33;22.80;;;;;;;-4.08;65.29;96908.44;5091552;28;20165;-67
2024/01/10 00:22:01;;;;;;;28.57;19.77;;;;;;;-3.69;63.51;96904.94;5092198;28;20166;-66
2024/01/10 00:24:26;;;;;;;41.73;23.03;;;;;;;-3.70;63.79;96901.53;5092374;28;20169;-67
2024/01/10 00:26:52;;;;;;;34.63;23.77;;;;;;;-3.76;65.36;96903.09;5094386;28;20225;-69
2024/01/10 00:29:17;;;;;;;38.80;23.70;;;;;;;-3.69;64.47;96899.81;5102298;28;20169;-69
2024/01/10 00:31:42;;;;;;;40.00;22.60;;;;;;;-3.68;64.22;96899.00;5105106;28;20177;-68
2024/01/10 00:34:08;;;;;;;30.80;21.00;;;;;;;-4.12;67.46;96899.81;5100823;28;20197;-67
2024/01/10 00:36:33;;;;;;;35.60;20.83;;;;;;;-4.11;67.18;96913.47;5091821;28;20189;-64
2024/01/10 00:38:58;;;;;;;33.93;21.57;;;;;;;-4.56;67.50;96909.06;5090425;28;20255;-66
2024/01/10 00:41:24;;;;;;;37.23;22.97;;;;;;;-4.35;67.87;96911.25;5090653;28;20172;-67
2024/01/10 00:43:49;;;;;;;36.00;22.30;;;;;;;-4.29;68.41;96913.97;5090752;28;20176;-66
2024/01/10 00:46:14;;;;;;;33.97;22.43;;;;;;;-3.87;66.28;96910.59;5089611;28;20276;-68
2024/01/10 00:48:41;;;;;;;38.57;24.07;;;;;;;-3.70;65.82;96906.66;5089779;28;20173;-66
2024/01/10 00:51:08;;;;;;;35.20;22.40;;;;;;;-3.69;64.79;96908.38;5089345;28;20177;-65
2024/01/10 00:53:34;;;;;;;38.47;23.57;;;;;;;-3.87;65.34;96908.03;5104796;28;20536;-65
2024/01/10 00:56:00;;;;;;;36.30;21.37;;;;;;;-4.10;67.80;96907.53;5089643;28;20412;-67
2024/01/10 00:58:25;;;;;;;31.70;20.77;;;;;;;-3.81;66.50;96899.59;5087576;28;20431;-68
2024/01/10 01:00:50;;;;;;;38.20;21.77;;;;;;;-3.68;65.95;96907.56;5089991;28;20633;-67
2024/01/10 01:03:16;;;;;;;34.47;22.73;;;;;;;-4.20;67.96;96911.59;5089118;28;20609;-66
2024/01/10 01:05:41;;;;;;;34.70;22.53;;;;;;;-4.42;68.17;96909.38;5089424;28;20529;-67
2024/01/10 01:08:06;;;;;;;37.93;21.70;;;;;;;-3.86;66.83;96907.19;5090701;28;20200;-68
2024/01/10 01:10:33;;;;;;;35.30;21.90;;;;;;;-3.57;65.58;96899.19;5090210;28;20184;-68
2024/01/10 01:12:59;;;;;;;33.57;22.13;;;;;;;-3.64;65.56;96905.91;5090384;28;21051;-68
2024/01/10 01:15:24;;;;;;;37.60;22.50;;;;;;;-3.72;65.19;96910.03;5092729;28;20484;-66
2024/01/10 01:17:50;;;;;;;37.93;22.17;;;;;;;-3.69;64.87;96910.06;5089635;28;20266;-67
2024/01/10 01:20:15;;;;;;;37.53;23.50;;;;;;;-3.59;65.36;96909.44;5087454;28;20173;-67
2024/01/10 01:22:41;;;;;;;32.00;21.57;;;;;;;-3.68;64.86;96910.13;5088097;28;20208;-68
2024/01/10 01:25:06;;;;;;;33.70;21.00;;;;;;;-3.63;64.94;96910.22;5088283;28;20248;-67
2024/01/10 01:27:32;;;;;;;34.87;21.83;;;;;;;-3.55;64.78;96906.06;5089096;28;20194;-66
2024/01/10 01:29:57;;;;;;;34.97;19.93;;;;;;;-3.40;63.48;96900.41;5089376;28;20204;-66
2024/01/10 01:32:22;;;;;;;28.70;19.33;;;;;;;-3.32;63.43;96903.94;5088050;28;20173;-67
2024/01/10 01:34:48;;;;;;;32.27;21.40;;;;;;;-3.35;63.93;96903.00;5087955;28;20170;-65
2024/01/10 01:37:13;;;;;;;29.50;20.20;;;;;;;-3.28;64.04;96910.03;5087717;28;20643;-66
2024/01/10 01:39:39;;;;;;;29.97;20.67;;;;;;;-3.21;63.07;96901.59;5087656;28;20180;-66
2024/01/10 01:42:04;;;;;;;34.60;23.07;;;;;;;-3.45;63.80;96905.44;5088164;28;20176;-65
2024/01/10 01:44:31;;;;;;;43.33;19.87;;;;;;;-3.99;64.83;96912.88;5089296;28;20168;-68
2024/01/10 01:46:57;;;;;;;39.90;21.17;;;;;;;-4.57;67.56;96912.47;5089634;28;20228;-68
2024/01/10 01:49:24;;;;;;;31.47;20.40;;;;;;;-4.69;68.15;96919.03;5090602;28;20469;-65
2024/01/10 01:51:50;;;;;;;34.07;21.53;;;;;;;-4.20;67.24;96910.75;5091432;28;20430;-67
2024/01/10 01:54:15;;;;;;;37.63;21.60;;;;;;;-4.52;68.25;96919.41;5091210;28;20783;-66
2024/01/10 01:56:43;;;;;;;34.73;19.43;;;;;;;-4.32;67.60;96913.91;5089010;28;20197;-65
2024/01/10 01:59:10;;;;;;;29.00;19.87;;;;;;;-4.18;66.38;96915.06;5089165;28;20185;-68
2024/01/10 02:01:35;;;;;;;31.93;19.33;;;;;;;-4.29;66.31;96916.53;5089841;28;20987;-68
2024/01/10 02:04:02;;;;;;;25.87;18.17;;;;;;;-3.86;65.44;96908.03;5088116;28;20493;-66
2024/01/10 02:06:29;;;;;;;30.27;19.80;;;;;;;-4.19;66.65;96923.56;5087462;28;20623;-66
2024/01/10 02:08:56;;;;;;;30.17;19.97;;;;;;;-4.40;67.13;96912.84;5087606;28;21028;-68
2024/01/10 02:11:22;;;;;;;31.97;19.80;;;;;;;-4.79;67.63;96911.97;5088417;28;20445;-66
2024/01/10 02:13:48;;;;;;;28.40;19.33;;;;;;;-4.75;68.71;96910.34;5088758;28;20454;-66
2024/01/10 02:16:14;;;;;;;26.57;18.00;;;;;;;-4.54;67.04;96920.22;5088463;28;20419;-66
2024/01/10 02:18:39;;;;;;;35.93;19.30;;;;;;;-4.33;68.20;96914.72;5089114;28;21211;-66
2024/01/10 02:21:05;;;;;;;30.63;19.33;;;;;;;-4.67;67.90;96911.41;5088587;28;20176;-66
2024/01/10 02:23:31;;;;;;;29.40;19.77;;;;;;;-4.40;67.07;96902.59;5089040;28;20680;-67
2024/01/10 02:25:56;;;;;;;33.37;20.23;;;;;;;-4.13;66.38;96910.91;5089546;28;20488;-67
2024/01/10 02:28:23;;;;;;;31.77;17.73;;;;;;;-4.33;67.31;96900.22;5088434;28;20189;-68
2024/01/10 02:30:52;;;;;;;28.03;18.67;;;;;;;-3.72;65.16;96895.50;5088374;28;20667;-66
2024/01/10 02:33:18;;;;;;;34.03;19.30;;;;;;;-4.01;64.92;96900.03;5088430;28;20455;-69
2024/01/10 02:35:43;;;;;;;32.77;20.07;;;;;;;-3.81;64.72;96897.03;5088344;28;20407;-67
2024/01/10 02:38:08;;;;;;;34.90;19.17;;;;;;;-3.79;65.13;96891.09;5088039;28;20208;-68
2024/01/10 02:40:34;;;;;;;30.37;18.23;;;;;;;-4.02;65.10;96895.75;5088035;28;20243;-66
2024/01/10 02:42:59;;;;;;;27.97;18.97;;;;;;;-3.78;65.23;96890.25;5087675;28;20170;-65
2024/01/10 02:45:25;;;;;;;25.00;17.77;;;;;;;-3.51;63.03;96891.63;5087983;28;20175;-65
2024/01/10 02:47:50;;;;;;;33.43;16.80;;;;;;;-3.48;62.55;96896.81;5087822;28;20197;-66
2024/01/10 02:50:16;;;;;;;26.30;19.10;;;;;;;-4.00;65.37;96893.22;5089227;28;20550;-65
2024/01/10 02:52:42;;;;;;;30.43;17.97;;;;;;;-3.85;64.20;96885.81;5094192;28;20193;-66
2024/01/10 02:55:07;;;;;;;25.13;17.90;;;;;;;-4.21;65.11;96897.03;5089647;28;20923;-68
2024/01/10 02:57:32;;;;;;;27.07;18.10;;;;;;;-3.97;64.47;96890.72;5089198;28;20767;-68
2024/01/10 02:59:58;;;;;;;28.43;19.53;;;;;;;-3.86;63.68;96889.22;5088486;28;20189;-65
2024/01/10 03:02:23;;;;;;;25.53;17.77;;;;;;;-4.29;66.04;96896.88;5088307;28;20224;-66
2024/01/10 03:04:49;;;;;;;24.57;16.37;;;;;;;-4.30;65.56;96895.16;5088964;28;20265;-67
2024/01/10 03:07:14;;;;;;;23.63;15.93;;;;;;;-3.92;64.26;96887.44;5088277;28;20215;-66
2024/01/10 03:09:40;;;;;;;29.47;19.07;;;;;;;-3.70;64.04;96886.13;5088704;28;20174;-66
2024/01/10 03:12:05;;;;;;;29.70;18.03;;;;;;;-3.78;63.79;96881.69;5098838;28;20237;-64
2024/01/10 03:14:33;;;;;;;23.93;16.13;;;;;;;-3.98;65.19;96881.31;5094977;28;20569;-67
2024/01/10 03:16:58;;;;;;;30.93;18.63;;;;;;;-4.21;65.02;96891.06;5088633;28;20189;-66
2024/01/10 03:19:23;;;;;;;28.50;17.10;;;;;;;-4.38;66.27;96888.13;5089192;28;20461;-65
2024/01/10 03:21:49;;;;;;;32.17;19.13;;;;;;;-4.59;67.02;96885.97;5088315;28;20174;-67
2024/01/10 03:24:14;;;;;;;31.73;18.73;;;;;;;-4.66;66.55;96895.19;5088603;28;20200;-68
2024/01/10 03:26:40;;;;;;;31.57;18.17;;;;;;;-4.01;65.10;96889.78;5089002;28;20185;-67
2024/01/10 03:29:05;;;;;;;28.67;20.63;;;;;;;-3.60;63.14;96881.19;5087754;28;20165;-67
2024/01/10 03:31:31;;;;;;;38.53;18.03;;;;;;;-3.56;63.54;96888.97;5088028;28;20623;-68
2024/01/10 03:33:58;;;;;;;30.60;18.93;;;;;;;-3.41;61.98;96886.69;5088187;28;20292;-65
2024/01/10 03:36:24;;;;;;;30.33;17.80;;;;;;;-3.48;63.83;96883.97;5087356;28;20414;-68
2024/01/10 03:38:49;;;;;;;24.40;17.70;;;;;;;-3.68;64.12;96891.31;5087795;28;20476;-69
2024/01/10 03:41:16;;;;;;;27.67;17.00;;;;;;;-3.64;63.54;96896.53;5087820;28;20499;-65
2024/01/10 03:43:41;;;;;;;27.93;18.20;;;;;;;-3.62;63.57;96899.97;5091185;28;20624;-67
2024/01/10 03:46:07;;;;;;;27.80;17.77;;;;;;;-3.68;62.14;96884.47;5092029;28;20411;-70
2024/01/10 03:48:33;;;;;;;26.53;17.50;;;;;;;-4.11;64.81;96898.09;5091446;28;20189;-65
2024/01/10 03:50:58;;;;;;;32.67;18.97;;;;;;;-3.92;64.19;96891.66;5091511;28;20316;-66
2024/01/10 03:53:23;;;;;;;31.53;19.47;;;;;;;-4.14;64.44;96887.78;5091760;28;20190;-66
2024/01/10 03:55:49;;;;;;;28.63;18.53;;;;;;;-4.16;63.92;96885.19;5092067;28;20595;-66
2024/01/10 03:58:14;;;;;;;25.93;17.20;;;;;;;-3.94;65.28;96883.97;5091775;28;20197;-67
2024/01/10 04:00:39;;;;;;;30.10;18.57;;;;;;;-4.28;64.78;96892.63;5092710;28;20177;-67
2024/01/10 04:03:05;;;;;;;27.70;16.70;;;;;;;-4.22;65.38;96884.22;5093057;28;20235;-67
2024/01/10 04:05:30;;;;;;;26.90;17.00;;;;;;;-3.79;62.80;96883.41;5093373;28;20174;-66
2024/01/10 04:07:56;;;;;;;24.80;17.07;;;;;;;-3.78;62.89;96876.56;5091070;28;20185;-67
2024/01/10 04:10:22;;;;;;;26.37;17.17;;;;;;;-3.99;64.13;96880.44;5090522;28;20181;-68
2024/01/10 04:12:49;;;;;;;28.53;18.30;;;;;;;-4.04;64.47;96882.03;5091542;28;20474;-69
2024/01/10 04:15:15;;;;;;;27.40;18.30;;;;;;;-3.93;63.64;96877.97;5096242;28;20404;-67
2024/01/10 04:17:40;;;;;;;30.87;18.13;;;;;;;-3.87;63.97;96887.50;5099594;28;20430;-67
2024/01/10 04:20:07;;;;;;;25.13;18.30;;;;;;;-3.76;63.65;96882.59;5099568;28;20461;-67
2024/01/10 04:22:32;;;;;;;32.60;18.40;;;;;;;-4.05;63.22;96878.59;5099195;28;20177;-68
2024/01/10 04:24:59;;;;;;;29.53;16.77;;;;;;;-4.28;64.15;96885.78;5100684;28;20407;-67
2024/01/10 04:27:25;;;;;;;25.90;16.67;;;;;;;-4.58;66.69;96895.34;5091349;28;20229;-67
2024/01/10 04:29:50;;;;;;;29.20;19.80;;;;;;;-4.48;66.71;96887.06;5089074;28;20926;-67
2024/01/10 04:32:15;;;;;;;29.53;17.90;;;;;;;-3.98;64.89;96887.28;5089978;28;20604;-67
2024/01/10 04:34:41;;;;;;;27.90;18.10;;;;;;;-4.12;65.84;96892.13;5090453;28;20212;-67
2024/01/10 04:37:09;;;;;;;28.03;17.63;;;;;;;-4.07;64.18;96892.22;5089800;28;20190;-68
2024/01/10 04:39:35;;;;;;;36.97;19.07;;;;;;;-3.95;65.42;96882.22;5090234;28;20505;-66
2024/01/10 04:42:01;;;;;;;31.50;17.90;;;;;;;-3.93;65.48;96888.25;5090570;28;20396;-65
2024/01/10 04:44:26;;;;;;;30.70;18.90;;;;;;;-3.92;nan;96883.97;5089924;28;20212;-67
2024/01/10 04:46:51;;;;;;;29.57;16.90;;;;;;;-4.16;65.64;96885.19;5090575;28;20459;-67
2024/01/10 04:49:17;;;;;;;25.33;18.50;;;;;;;-3.91;65.16;96885.72;5093010;28;20166;-68
2024/01/10 04:51:43;;;;;;;27.73;18.00;;;;;;;-4.07;64.58;96882.81;5089473;28;20824;-66
2024/01/10 04:54:08;;;;;;;34.30;21.83;;;;;;;-3.91;64.60;96889.13;5088595;28;20291;-68
2024/01/10 04:56:36;;;;;;;32.03;20.47;;;;;;;-4.24;66.34;96891.00;5090446;28;20255;-66
2024/01/10 04:59:01;;;;;;;30.63;20.07;;;;;;;-4.35;66.91;96881.38;5089717;28;20174;-68
2024/01/10 05:01:27;;;;;;;38.80;21.80;;;;;;;-4.29;67.75;96896.03;5090321;28;20407;-67
2024/01/10 05:03:52;;;;;;;37.43;23.17;;;;;;;-4.08;66.21;96888.78;5090104;28;20162;-66
2024/01/10 05:06:18;;;;;;;38.97;22.60;;;;;;;-4.36;66.37;96892.47;5090184;28;20170;-68
2024/01/10 05:08:43;;;;;;;40.73;23.80;;;;;;;-4.19;66.83;96892.81;5089323;28;20619;-67
2024/01/10 05:11:08;;;;;;;36.37;21.27;;;;;;;-4.27;66.58;96891.81;5089065;28;20180;-67
2024/01/10 05:13:34;;;;;;;42.40;23.90;;;;;;;-4.19;67.50;96900.50;5088193;28;20354;-68
2024/01/10 05:16:00;;;;;;;42.43;22.90;;;;;;;-3.98;67.25;96889.84;5088686;28;20176;-67
2024/01/10 05:18:26;;;;;;;40.57;23.83;;;;;;;-3.97;66.59;96890.72;5088403;28;20190;-66
2024/01/10 05:20:51;;;;;;;37.10;22.60;;;;;;;-4.01;65.84;96896.63;5088444;28;21102;-66
2024/01/10 05:23:17;;;;;;;37.83;22.27;;;;;;;-3.80;66.70;96891.03;5089601;28;20166;-68
2024/01/10 05:25:42;;;;;;;31.90;20.33;;;;;;;-3.74;65.32;96891.19;5089284;28;20180;-67
2024/01/10 05:28:08;;;;;;;31.87;18.97;;;;;;;-3.83;66.05;96889.28;5087430;28;20196;-68
2024/01/10 05:30:33;;;;;;;41.57;26.37;;;;;;;-4.08;67.41;96883.66;5089297;28;20624;-68
2024/01/10 05:32:58;;;;;;;30.37;21.00;;;;;;;-4.26;66.60;96896.94;5088995;28;20247;-66
2024/01/10 05:35:28;;;;;;;30.13;19.60;;;;;;;-4.12;66.86;96889.56;5089683;28;20229;-67
2024/01/10 05:37:54;;;;;;;33.10;18.60;;;;;;;-3.83;65.91;96890.19;5088546;28;20641;-67
2024/01/10 05:40:20;;;;;;;29.97;18.37;;;;;;;-3.55;66.16;96890.69;5088968;28;20408;-67
2024/01/10 05:42:45;;;;;;;33.57;20.27;;;;;;;-3.61;66.08;96893.16;5089170;28;20493;-66
2024/01/10 05:45:10;;;;;;;30.10;19.33;;;;;;;-3.62;65.42;96897.41;5094144;28;20780;-67
2024/01/10 05:47:36;;;;;;;31.67;18.50;;;;;;;-3.80;64.96;96891.03;5089013;28;20185;-67
2024/01/10 05:50:06;;;;;;;39.17;22.60;;;;;;;-3.51;66.27;96891.63;5088052;28;20761;-67
2024/01/10 05:52:32;;;;;;;39.57;21.10;;;;;;;-3.67;65.15;96886.19;5087756;28;20420;-68
2024/01/10 05:54:57;;;;;;;32.10;19.33;;;;;;;-3.28;64.62;96890.34;5076580;27;20414;-68
2024/01/10 05:57:23;;;;;;;31.33;19.00;;;;;;;-3.62;66.41;96889.69;5101110;28;20439;-68
2024/01/10 05:59:48;;;;;;;33.57;20.00;;;;;;;-3.65;65.91;96883.66;5087999;28;20191;-67
2024/01/10 06:02:16;;;;;;;29.03;19.50;;;;;;;-3.61;65.72;96880.34;5088246;28;20177;-67
2024/01/10 06:04:41;;;;;;;28.13;18.83;;;;;;;-3.32;65.00;96891.13;5089086;28;20194;-68
2024/01/10 06:07:07;;;;;;;29.77;19.80;;;;;;;-3.33;64.88;96896.22;5095109;28;20439;-67
2024/01/10 06:09:32;;;;;;;28.77;19.50;;;;;;;-3.09;64.18;96896.66;5100044;28;20204;-69
2024/01/10 06:11:58;;;;;;;31.03;19.80;;;;;;;-2.98;63.31;96904.53;5097321;28;20181;-68
2024/01/10 06:14:23;;;;;;;37.87;21.93;;;;;;;-3.46;63.71;96902.84;5093317;28;20209;-64
2024/01/10 06:16:48;;;;;;;32.13;19.27;;;;;;;-3.28;64.38;96897.19;5087540;28;20259;-66
2024/01/10 06:19:14;;;;;;;27.67;18.60;;;;;;;-3.17;64.83;96902.50;5088523;28;20242;-67
2024/01/10 06:21:39;;;;;;;29.90;18.07;;;;;;;-3.06;63.92;96906.97;5087659;28;20201;-68
2024/01/10 06:24:05;;;;;;;30.50;17.87;;;;;;;-3.24;64.23;96911.78;5087753;28;20172;-67
2024/01/10 06:26:30;;;;;;;32.77;21.10;;;;;;;-3.15;63.52;96901.69;5087308;28;20629;-63
2024/01/10 06:28:56;;;;;;;31.97;20.40;;;;;;;-3.07;64.80;96906.94;5087244;28;20169;-67
2024/01/10 06:31:21;;;;;;;28.03;17.33;;;;;;;-3.31;65.47;96909.94;5087499;28;20257;-68
2024/01/10 06:33:47;;;;;;;28.27;18.37;;;;;;;-2.94;63.99;96905.47;5087211;28;20253;-68
2024/01/10 06:36:12;;;;;;;27.60;19.20;;;;;;;-3.24;64.65;96911.78;5088475;28;20169;-68
2024/01/10 06:38:39;;;;;;;31.80;21.07;;;;;;;-3.01;64.31;96899.34;5087748;28;20195;-68
2024/01/10 06:41:10;;;;;;;33.43;20.80;;;;;;;-3.13;63.76;96904.28;5088722;28;20172;-67
2024/01/10 06:43:38;;;;;;;34.70;20.17;;;;;;;-2.87;63.69;96897.03;5088074;28;20510;-68
2024/01/10 06:46:03;;;;;;;46.53;21.37;;;;;;;-2.78;63.54;96902.31;5095519;28;20432;-67
2024/01/10 06:48:29;;;;;;;35.40;21.43;;;;;;;-2.89;64.61;96914.09;5090288;28;20730;-68
2024/01/10 06:50:55;;;;;;;30.90;21.10;;;;;;;-2.84;63.88;96897.91;5089939;28;20166;-67
2024/01/10 06:53:21;;;;;;;35.20;18.70;;;;;;;-3.13;64.37;96909.41;5089360;28;20296;-66
2024/01/10 06:55:46;;;;;;;33.00;21.27;;;;;;;-3.14;65.11;96897.41;5088819;28;20557;-67
2024/01/10 06:58:12;;;;;;;31.80;19.10;;;;;;;-3.24;65.68;96906.66;5087810;28;20185;-69
2024/01/10 07:00:38;;;;;;;36.50;20.73;;;;;;;-3.33;65.37;96914.19;5086980;28;20692;-67
2024/01/10 07:03:04;;;;;;;30.47;19.87;;;;;;;-3.22;64.35;96910.97;5088625;28;20172;-66
2024/01/10 07:05:31;;;;;;;38.00;20.43;;;;;;;-3.49;66.21;96916.47;5088156;28;20422;-66
2024/01/10 07:08:02;;;;;;;32.87;19.10;;;;;;;-3.47;66.36;96914.81;5087751;28;20633;-66
2024/01/10 07:10:31;;;;;;;33.67;18.67;;;;;;;-3.31;64.89;96915.06;5087421;28;20407;-66
2024/01/10 07:12:56;;;;;;;31.43;19.40;;;;;;;-3.62;65.51;96927.31;5087455;28;20868;-67
2024/01/10 07:15:22;;;;;;;32.60;19.40;;;;;;;-3.58;66.97;96930.81;5088168;28;20404;-66
2024/01/10 07:17:48;;;;;;;31.77;21.47;;;;;;;-3.54;66.65;96938.63;5088764;28;20205;-66
2024/01/10 07:20:14;;;;;;;31.73;20.47;;;;;;;-3.44;65.30;96934.53;5092865;28;20261;-65
2024/01/10 07:22:43;;;;;;;37.10;22.60;;;;;;;-3.22;65.64;96933.22;5093283;28;20431;-66
2024/01/10 07:25:14;;;;;;;30.00;18.97;;;;;;;-3.33;66.20;96942.41;5094988;28;20185;-66
2024/01/10 07:27:42;;;;;;;32.57;20.17;;;;;;;-3.39;66.65;96944.88;5093070;28;20509;-67
2024/01/10 07:30:14;;;;;;;31.23;19.87;;;;;;;-3.68;67.24;96945.16;5090088;28;21134;-66
2024/01/10 07:32:43;;;;;;;34.17;20.10;;;;;;;-4.12;69.62;96952.78;5087650;28;20423;-66
2024/01/10 07:35:10;;;;;;;35.10;21.40;;;;;;;-3.86;68.43;96953.34;5088465;28;20395;-68
2024/01/10 07:37:39;;;;;;;37.87;23.27;;;;;;;-3.56;68.04;96953.09;5087824;28;20431;-66
2024/01/10 07:40:08;;;;;;;35.20;21.20;;;;;;;-3.87;68.41;96959.31;5088286;28;20391;-68
2024/01/10 07:42:35;;;;;;;31.40;19.90;;;;;;;-3.55;68.34;96959.09;5088157;28;20418;-66
2024/01/10 07:45:04;;;;;;;34.37;22.27;;;;;;;-3.49;67.96;96956.66;5088249;28;20470;-67
2024/01/10 07:47:31;;;;;;;34.20;20.23;;;;;;;-3.69;68.18;96956.25;5087990;28;20438;-70
2024/01/10 07:49:57;;;;;;;38.97;23.70;;;;;;;-3.59;67.22;96955.63;5087678;28;20408;-66
2024/01/10 07:52:22;;;;;;;31.87;20.07;;;;;;;-3.39;68.47;96965.41;5089000;28;20761;-66
2024/01/10 07:54:48;;;;;;;34.30;21.43;;;;;;;-3.49;67.62;96969.50;5088138;28;20422;-66
2024/01/10 07:57:13;;;;;;;35.10;20.50;;;;;;;-3.15;66.01;96968.44;5089448;28;20204;-67
2024/01/10 07:59:38;;;;;;;39.27;20.70;;;;;;;-3.13;66.30;96968.47;5088657;28;20244;-66
2024/01/10 08:02:04;;;;;;;35.77;22.27;;;;;;;-3.44;67.31;96980.72;5089242;28;20505;-67
2024/01/10 08:04:29;;;;;;;36.43;21.00;;;;;;;-3.16;65.90;96976.13;5090082;28;20174;-73
2024/01/10 08:06:55;;;;;;;35.43;21.93;;;;;;;-3.23;66.61;96981.13;5089898;28;20288;-66
2024/01/10 08:09:21;;;;;;;41.10;21.20;;;;;;;-2.96;66.29;96979.91;5088996;28;20204;-67
2024/01/10 08:11:47;;;;;;;28.87;21.00;;;;;;;-3.01;65.44;96986.66;5088062;28;20170;-66
2024/01/10 08:14:14;;;;;;;41.23;22.87;;;;;;;-2.73;64.96;96989.72;5088843;28;20447;-67
2024/01/10 08:16:39;;;;;;;36.57;22.00;;;;;;;-3.00;66.32;96984.13;5089991;28;20427;-66
2024/01/10 08:19:04;;;;;;;30.83;21.33;;;;;;;-2.43;63.71;96979.97;5089319;28;20429;-63
2024/01/10 08:21:30;;;;;;;30.97;20.83;;;;;;;-2.28;63.00;96981.03;5089048;28;20277;-66
2024/01/10 08:23:55;;;;;;;30.63;20.27;;;;;;;-2.07;62.57;96980.50;5089169;28;20248;-66
2024/01/10 08:26:21;;;;;;;35.60;20.27;;;;;;;-2.13;61.42;96976.13;5089934;28;20281;-64
2024/01/10 08:28:50;;;;;;;42.33;22.83;;;;;;;-2.55;63.06;96990.06;5088526;28;20185;-64
2024/01/10 08:31:19;;;;;;;31.93;19.07;;;;;;;-2.13;61.70;96992.44;5089075;28;20447;-66
2024/01/10 08:33:45;;;;;;;37.47;23.30;;;;;;;-1.85;61.15;96987.66;5089389;28;20664;-65
2024/01/10 08:36:10;;;;;;;39.77;23.10;;;;;;;-1.50;61.11;96983.00;5088526;28;20414;-66
2024/01/10 08:38:36;;;;;;;31.27;19.90;;;;;;;-1.42;59.61;96987.38;5087982;28;20201;-66
2024/01/10 08:41:03;;;;;;;37.33;20.80;;;;;;;-1.20;59.31;96986.81;5088426;28;20177;-65
2024/01/10 08:43:28;;;;;;;38.40;20.90;;;;;;;-1.29;59.85;96994.41;5089065;28;21011;-66
2024/01/10 08:45:54;;;;;;;35.83;22.47;;;;;;;-2.06;61.03;96997.66;5092445;28;20420;-65
2024/01/10 08:48:19;;;;;;;34.30;20.03;;;;;;;-2.22;61.98;97002.56;5088931;28;20273;-65
2024/01/10 08:50:45;;;;;;;32.67;22.07;;;;;;;-1.92;60.87;97002.16;5088130;28;20180;-66
2024/01/10 08:53:10;;;;;;;33.43;19.50;;;;;;;-2.38;61.61;96998.03;5088115;28;20738;-66
2024/01/10 08:55:37;;;;;;;35.27;22.00;;;;;;;-2.48;62.58;97011.53;5088841;28;20193;-67
2024/01/10 08:58:03;;;;;;;29.40;20.73;;;;;;;-2.54;62.59;97014.88;5087902;28;20197;-68
2024/01/10 09:00:28;;;;;;;34.87;21.27;;;;;;;-2.21;61.78;97006.00;5088532;28;20534;-66
2024/01/10 09:02:55;;;;;;;44.50;24.33;;;;;;;-1.95;61.64;97002.13;5087111;28;20437;-66
2024/01/10 09:05:21;;;;;;;34.10;23.03;;;;;;;-1.67;60.38;97011.94;5088496;28;20181;-66
2024/01/10 09:07:47;;;;;;;38.03;21.70;;;;;;;-1.58;60.01;97018.09;5088395;28;20462;-65
2024/01/10 09:10:13;;;;;;;32.97;20.87;;;;;;;-2.42;62.22;97014.22;5088201;28;20526;-64
2024/01/10 09:12:39;;;;;;;42.70;23.40;;;;;;;-2.60;63.12;97027.63;5087529;28;21211;-65
2024/01/10 09:15:04;;;;;;;39.37;23.23;;;;;;;-2.78;64.87;97031.59;5087821;28;20170;-65
2024/01/10 09:17:30;;;;;;;39.47;26.60;;;;;;;-2.26;63.31;97026.50;5087858;28;20449;-64
2024/01/10 09:19:55;;;;;;;48.27;25.43;;;;;;;-2.05;61.66;97031.13;5088356;28;20647;-67
2024/01/10 09:22:21;;;;;;;39.00;25.00;;;;;;;-1.93;61.17;97026.16;5088421;28;20181;-67
2024/01/10 09:24:47;;;;;;;39.47;24.13;;;;;;;-2.05;61.41;97028.53;5088064;28;20165;-65
2024/01/10 09:27:12;;;;;;;37.97;22.83;;;;;;;-2.59;63.48;97037.06;5087997;28;20712;-65
2024/01/10 09:29:38;;;;;;;39.53;24.80;;;;;;;-1.92;62.48;97033.00;5088199;28;20454;-65
2024/01/10 09:32:03;;;;;;;45.73;26.07;;;;;;;-1.88;61.54;97035.66;5089238;28;20172;-65
2024/01/10 09:34:29;;;;;;;45.93;27.33;;;;;;;-1.68;61.71;97035.94;5092573;28;20659;-68
2024/01/10 09:36:54;;;;;;;44.90;25.10;;;;;;;-1.86;61.93;97023.69;5092681;28;20227;-66
2024/01/10 09:39:20;;;;;;;43.10;24.93;;;;;;;-1.82;62.06;97035.72;5104383;28;20188;-69
2024/01/10 09:41:50;;;;;;;43.90;25.03;;;;;;;-1.35;61.15;97033.81;5109512;28;20166;-66
2024/01/10 09:44:21;;;;;;;38.50;23.50;;;;;;;-1.74;61.70;97035.00;5107538;28;20150;-67
2024/01/10 09:46:50;;;;;;;46.47;26.67;;;;;;;-1.50;61.61;97029.31;5106361;28;20776;-68
2024/01/10 09:49:17;;;;;;;43.77;24.60;;;;;;;-1.54;60.81;97037.84;5099772;28;20777;-67
2024/01/10 09:51:42;;;;;;;40.40;23.20;;;;;;;-1.54;61.37;97034.41;5092134;28;20487;-69
2024/01/10 09:54:08;;;;;;;43.50;25.90;;;;;;;-1.65;61.15;97039.44;5090469;28;20539;-68
2024/01/10 09:56:34;;;;;;;43.77;24.80;;;;;;;-1.72;62.49;97037.63;5089834;28;20180;-68
2024/01/10 09:59:01;;;;;;;42.67;26.87;;;;;;;-1.56;61.30;97039.56;5090910;28;20528;-66
2024/01/10 10:01:26;;;;;;;40.23;24.37;;;;;;;-1.39;60.82;97036.34;5088490;28;20219;-67
2024/01/10 10:03:56;;;;;;;42.77;23.57;;;;;;;-1.80;61.98;97039.19;5090725;28;20403;-67
2024/01/10 10:06:21;;;;;;;39.53;22.73;;;;;;;-2.01;63.77;97044.88;5089968;28;20177;-64
2024/01/10 10:08:47;;;;;;;42.83;23.17;;;;;;;-1.37;61.76;97050.06;5094224;28;20464;-66
2024/01/10 10:11:14;;;;;;;31.40;20.30;;;;;;;-1.53;61.63;97046.47;5091369;28;20176;-66
2024/01/10 10:13:41;;;;;;;36.47;22.67;;;;;;;-1.25;61.20;97032.25;5087622;28;20201;-66
2024/01/10 10:16:09;;;;;;;36.03;21.23;;;;;;;-0.96;60.48;97036.88;5087023;28;20418;-67
2024/01/10 10:18:35;;;;;;;38.60;22.50;;;;;;;-0.98;59.70;97038.56;5087385;28;20446;-68
2024/01/10 10:21:11;;;;;;;37.23;22.10;;;;;;;-0.96;60.54;97036.88;5086023;28;20423;-69
2024/01/10 10:23:41;;;;;;;38.90;22.30;;;;;;;-1.01;60.98;97039.38;5086029;28;20488;-68
2024/01/10 10:26:20;;;;;;;33.53;21.10;;;;;;;-1.43;62.32;97045.72;5085653;28;20486;-68
2024/01/10 10:28:47;;;;;;;37.07;21.90;;;;;;;-1.15;61.68;97033.22;5087463;28;20804;-67
2024/01/10 10:31:13;;;;;;;32.33;21.37;;;;;;;-0.91;60.99;97037.78;5089422;28;20498;-67
2024/01/10 10:33:39;;;;;;;48.47;22.60;;;;;;;-0.78;60.22;97039.66;5087452;28;20573;-66
2024/01/10 10:36:04;;;;;;;37.90;22.87;;;;;;;-0.47;65.95;97040.81;5088731;28;20173;-66
2024/01/10 10:38:30;;;;;;;22.97;13.33;;;;;;;3.38;81.95;97026.97;5087743;28;20434;-67
2024/01/10 10:40:58;;;;;;;24.57;13.70;;;;;;;4.97;70.90;97008.25;5086828;28;20177;-68
2024/01/10 10:43:24;;;;;;;35.90;20.77;;;;;;;4.16;52.02;97008.22;5087406;28;20166;-70
2024/01/10 10:45:50;;;;;;;41.03;22.40;;;;;;;1.90;53.54;97010.94;5088816;28;20886;-67
2024/01/10 10:48:20;;;;;;;29.47;20.50;;;;;;;0.95;56.13;97016.81;5089123;28;20443;-66
2024/01/10 10:51:06;;;;;;;35.40;21.87;;;;;;;-0.45;58.88;97023.66;5088385;28;20192;-70
2024/01/10 10:53:34;;;;;;;36.97;22.93;;;;;;;-0.23;59.12;97021.25;5093176;28;20494;-66
2024/01/10 10:56:00;;;;;;;38.90;22.10;;;;;;;-0.60;58.91;97023.50;5093100;28;20764;-66
2024/01/10 10:58:25;;;;;;;42.13;22.03;;;;;;;-1.08;61.17;97019.56;5095829;28;20419;-67
2024/01/10 11:00:52;;;;;;;34.73;21.30;;;;;;;-0.95;61.11;97025.69;5096336;28;20245;-64
2024/01/10 11:03:19;;;;;;;33.43;23.57;;;;;;;-1.36;61.97;97026.94;5095846;28;20166;-65
2024/01/10 11:05:45;;;;;;;36.47;22.13;;;;;;;-0.76;60.46;97017.31;5095313;28;20433;-66
2024/01/10 11:08:15;;;;;;;34.67;19.87;;;;;;;-0.58;60.21;97024.38;5096093;28;20488;-63
2024/01/10 11:10:43;;;;;;;34.77;21.80;;;;;;;-0.94;60.21;97019.72;5095977;28;20396;-67